Solihull, United Kingdom
Current Conditions -  °F | °C
As of 5:20 PM on Wednesday 26 Nov 2014 (Local Time) from EGBB Reporting Station
Moderate Fog Moderate Fog  
Wind Chill: 42°   Ceiling: 100
Heat Index: 45°   Visibility: 0.18mi
Dew Point: 45°   Wind: 5mph
Humidity: 100%   Direction: 10°N
Pressure: 29.8"   Gusts: NA
Location:  52.41°N, 1.77°W
Report Text: EGBB 261720Z 01004KT 0300 R33/1400 FG OVC001 07/07 Q1009
Loading
Personal Weather Stations






























Interactive Weather Map New forecast layout! Learn more

10-Day Weather Forecast

Advertisements
Track Severe Weather on mobile